createdAt,value
2018-06-15T00:00:46.662Z,6.30
2018-06-15T00:03:14.874Z,5.90
2018-06-15T00:05:43.092Z,8.33
2018-06-15T00:08:11.562Z,8.90
2018-06-15T00:10:40.234Z,5.00
2018-06-15T00:13:09.371Z,6.40
2018-06-15T00:15:37.337Z,6.10
2018-06-15T00:18:05.574Z,5.50
2018-06-15T00:20:33.778Z,5.50
2018-06-15T00:23:02.014Z,6.30
2018-06-15T00:25:30.277Z,5.50
2018-06-15T00:27:58.589Z,6.37
2018-06-15T00:30:26.766Z,6.10
2018-06-15T00:32:55.050Z,5.90
2018-06-15T00:35:23.354Z,5.47
2018-06-15T00:37:51.581Z,6.07
2018-06-15T00:40:19.858Z,6.30
2018-06-15T00:42:48.091Z,7.03
2018-06-15T00:45:16.354Z,8.13
2018-06-15T00:47:44.574Z,9.00
2018-06-15T00:50:12.804Z,8.37
2018-06-15T00:52:41.062Z,9.63
2018-06-15T00:55:09.790Z,11.67
2018-06-15T00:57:42.980Z,10.30
2018-06-15T01:00:11.240Z,12.13
2018-06-15T01:02:39.461Z,11.80
2018-06-15T01:05:07.796Z,12.10
2018-06-15T01:07:36.036Z,12.60
2018-06-15T01:10:04.369Z,13.57
2018-06-15T01:12:32.631Z,15.10
2018-06-15T01:15:00.593Z,14.70
2018-06-15T01:17:28.890Z,13.37
2018-06-15T01:19:57.680Z,14.20
2018-06-15T01:22:25.901Z,15.10
2018-06-15T01:24:54.090Z,15.83
2018-06-15T01:27:22.334Z,15.17
2018-06-15T01:29:50.579Z,15.53
2018-06-15T01:32:18.901Z,15.43
2018-06-15T01:34:47.087Z,15.50
2018-06-15T01:37:15.290Z,14.80
2018-06-15T01:39:43.534Z,15.20
2018-06-15T01:42:11.828Z,17.10
2018-06-15T01:44:40.174Z,15.60
2018-06-15T01:47:08.358Z,15.13
2018-06-15T01:49:36.688Z,16.00
2018-06-15T01:52:04.918Z,14.67
2018-06-15T01:54:33.218Z,15.07
2018-06-15T01:57:01.414Z,16.17
2018-06-15T01:59:29.630Z,17.43
2018-06-15T02:01:57.874Z,16.63
2018-06-15T02:04:26.098Z,16.50
2018-06-15T02:06:54.169Z,16.30
2018-06-15T02:09:22.414Z,18.30
2018-06-15T02:11:50.635Z,16.77
2018-06-15T02:14:18.869Z,15.10
2018-06-15T02:16:47.087Z,15.30
2018-06-15T02:19:15.379Z,15.20
2018-06-15T02:21:43.589Z,14.30
2018-06-15T02:24:11.865Z,15.63
2018-06-15T02:26:40.056Z,15.30
2018-06-15T02:29:08.313Z,15.30
2018-06-15T02:31:36.515Z,17.30
2018-06-15T02:34:04.749Z,16.50
2018-06-15T02:36:32.722Z,15.80
2018-06-15T02:39:00.934Z,16.77
2018-06-15T02:41:29.114Z,16.57
2018-06-15T02:43:57.333Z,17.70
2018-06-15T02:46:25.838Z,17.80
2018-06-15T02:48:54.209Z,15.63
2018-06-15T02:51:22.630Z,17.30
2018-06-15T02:53:50.850Z,18.23
2018-06-15T02:56:19.077Z,18.77
2018-06-15T02:58:47.323Z,16.50
2018-06-15T03:01:15.520Z,18.17
2018-06-15T03:03:43.758Z,18.00
2018-06-15T03:06:12.782Z,18.42
2018-06-15T03:08:41.071Z,18.00
2018-06-15T03:11:09.298Z,17.97
2018-06-15T03:13:37.523Z,18.03
2018-06-15T03:16:05.835Z,18.00
2018-06-15T03:18:34.102Z,17.40
2018-06-15T03:21:02.663Z,18.50
2018-06-15T03:23:30.632Z,18.40
2018-06-15T03:25:58.870Z,17.40
2018-06-15T03:28:27.095Z,18.03
2018-06-15T03:30:55.345Z,17.20
2018-06-15T03:33:23.658Z,16.37
2018-06-15T03:35:51.914Z,16.77
2018-06-15T03:38:20.111Z,17.60
2018-06-15T03:40:48.438Z,17.57
2018-06-15T03:43:16.714Z,18.00
2018-06-15T03:45:44.930Z,18.17
2018-06-15T03:48:13.577Z,19.42
2018-06-15T03:50:41.811Z,17.70
2018-06-15T03:53:10.696Z,18.47
2018-06-15T03:55:39.015Z,17.77
2018-06-15T03:58:07.072Z,18.77
2018-06-15T04:00:35.407Z,19.77
2018-06-15T04:03:03.716Z,19.33
2018-06-15T04:05:32.001Z,19.40
2018-06-15T04:08:00.242Z,17.87
2018-06-15T04:10:28.545Z,18.50
2018-06-15T04:12:56.949Z,18.00
2018-06-15T04:15:25.125Z,18.90
2018-06-15T04:18:08.410Z,17.30
2018-06-15T04:20:38.192Z,18.20
2018-06-15T04:23:06.474Z,17.90
2018-06-15T04:25:34.809Z,17.80
2018-06-15T04:28:03.202Z,16.67
2018-06-15T04:30:31.564Z,18.70
2018-06-15T04:33:00.519Z,18.27
2018-06-15T04:35:28.967Z,18.10
2018-06-15T04:37:56.972Z,16.97
2018-06-15T04:40:25.183Z,17.77
2018-06-15T04:42:53.686Z,17.93
2018-06-15T04:45:21.919Z,16.70
2018-06-15T04:47:50.070Z,18.97
2018-06-15T04:50:18.346Z,18.93
2018-06-15T04:52:46.527Z,19.83
2018-06-15T04:55:15.253Z,19.27
2018-06-15T04:57:43.614Z,18.80
2018-06-15T05:00:11.934Z,18.13
2018-06-15T05:02:40.134Z,17.73
2018-06-15T05:05:08.436Z,18.37
2018-06-15T05:07:36.698Z,16.57
2018-06-15T05:10:05.204Z,17.90
2018-06-15T05:12:33.602Z,17.73
2018-06-15T05:15:02.019Z,17.70
2018-06-15T05:17:30.057Z,16.87
2018-06-15T05:19:58.290Z,16.70
2018-06-15T05:22:26.492Z,17.60
2018-06-15T05:24:55.204Z,16.87
2018-06-15T05:27:25.607Z,17.47
2018-06-15T05:29:53.822Z,17.00
2018-06-15T05:32:22.062Z,17.97
2018-06-15T05:34:50.268Z,17.30
2018-06-15T05:37:18.261Z,18.10
2018-06-15T05:39:46.286Z,16.40
2018-06-15T05:42:14.665Z,16.60
2018-06-15T05:44:42.875Z,16.40
2018-06-15T05:47:11.100Z,17.63
2018-06-15T05:49:39.361Z,17.07
2018-06-15T05:52:07.839Z,16.80
2018-06-15T05:54:38.114Z,16.80
2018-06-15T05:57:06.584Z,16.37
2018-06-15T05:59:34.891Z,18.47
2018-06-15T06:02:03.204Z,16.77
2018-06-15T06:04:31.262Z,17.00
2018-06-15T06:06:59.807Z,16.40
2018-06-15T06:09:28.159Z,16.65
2018-06-15T06:11:57.090Z,16.03
2018-06-15T06:14:25.513Z,14.83
2018-06-15T06:16:53.768Z,16.73
2018-06-15T06:19:21.962Z,15.87
2018-06-15T06:21:50.192Z,15.97
2018-06-15T06:24:18.419Z,16.80
2018-06-15T06:26:46.443Z,15.40
2018-06-15T06:29:14.696Z,15.27
2018-06-15T06:31:42.776Z,14.67
2018-06-15T06:34:10.810Z,14.77
2018-06-15T06:36:39.806Z,15.10
2018-06-15T06:39:10.258Z,16.27
2018-06-15T06:41:38.812Z,15.50
2018-06-15T06:44:07.138Z,15.70
2018-06-15T06:46:35.440Z,16.00
2018-06-15T06:49:03.791Z,15.13
2018-06-15T06:51:32.083Z,14.28
2018-06-15T06:54:00.070Z,15.03
2018-06-15T06:56:28.567Z,15.10
2018-06-15T06:58:57.106Z,15.20
2018-06-15T07:01:25.349Z,16.20
2018-06-15T07:03:53.658Z,14.77
2018-06-15T07:06:22.087Z,16.20
2018-06-15T07:08:50.190Z,15.80
2018-06-15T07:11:18.319Z,15.00
2018-06-15T07:13:46.562Z,15.60
2018-06-15T07:16:14.926Z,16.63
2018-06-15T07:18:43.150Z,16.00
2018-06-15T07:21:11.207Z,17.03
2018-06-15T07:23:39.509Z,15.47
2018-06-15T07:26:07.660Z,16.27
2018-06-15T07:28:36.118Z,15.57
2018-06-15T07:31:04.470Z,15.70
2018-06-15T07:33:32.788Z,15.60
2018-06-15T07:36:01.581Z,15.53
2018-06-15T07:38:30.186Z,15.47
2018-06-15T07:40:58.314Z,13.30
2018-06-15T07:43:26.594Z,14.00
2018-06-15T07:45:55.427Z,12.33
2018-06-15T07:48:24.588Z,14.50
2018-06-15T07:50:52.839Z,13.83
2018-06-15T07:53:21.594Z,13.37
2018-06-15T07:55:49.974Z,13.03
2018-06-15T07:58:18.393Z,14.17
2018-06-15T08:00:46.731Z,13.47
2018-06-15T08:03:14.801Z,13.53
2018-06-15T08:05:43.644Z,14.00
2018-06-15T08:08:12.411Z,13.40
2018-06-15T08:10:40.656Z,12.83
2018-06-15T08:13:08.915Z,12.17
2018-06-15T08:15:37.146Z,12.50
2018-06-15T08:18:05.662Z,11.80
2018-06-15T08:20:33.658Z,12.07
2018-06-15T08:23:01.938Z,11.27
2018-06-15T08:25:30.222Z,10.20
2018-06-15T08:27:58.622Z,10.60
2018-06-15T08:30:26.850Z,9.10
2018-06-15T08:32:55.178Z,11.00
2018-06-15T08:35:23.571Z,9.93
2018-06-15T08:37:51.886Z,9.87
2018-06-15T08:40:20.135Z,10.70
2018-06-15T08:42:48.505Z,10.63
2018-06-15T08:45:17.101Z,9.50
2018-06-15T08:47:45.653Z,9.60
2018-06-15T08:50:13.967Z,10.10
2018-06-15T08:52:42.051Z,10.20
2018-06-15T08:55:10.459Z,8.90
2018-06-15T08:57:38.762Z,10.37
2018-06-15T09:00:07.913Z,8.70
2018-06-15T09:02:36.150Z,8.67
2018-06-15T09:05:04.935Z,7.40
2018-06-15T09:07:33.310Z,8.57
2018-06-15T09:10:01.353Z,10.30
2018-06-15T09:12:29.665Z,9.83
2018-06-15T09:14:58.724Z,8.30
2018-06-15T09:17:27.091Z,6.90
2018-06-15T09:19:55.109Z,6.97
2018-06-15T09:22:23.426Z,6.80
2018-06-15T09:24:52.334Z,6.60
2018-06-15T09:27:20.618Z,5.50
2018-06-15T09:29:49.042Z,6.30
2018-06-15T09:32:17.077Z,6.13
2018-06-15T09:34:45.291Z,6.50
2018-06-15T09:37:13.516Z,7.07
2018-06-15T09:39:41.508Z,6.17
2018-06-15T09:42:09.722Z,6.90
2018-06-15T09:44:38.038Z,6.80
2018-06-15T09:47:06.350Z,6.23
2018-06-15T09:49:34.702Z,6.93
2018-06-15T09:52:02.946Z,6.20
2018-06-15T09:54:31.025Z,6.50
2018-06-15T09:56:59.239Z,6.73
2018-06-15T09:59:27.566Z,6.60
2018-06-15T10:01:55.833Z,6.47
2018-06-15T10:04:24.131Z,7.90
2018-06-15T10:06:52.769Z,7.90
2018-06-15T10:09:21.133Z,8.63
2018-06-15T10:11:49.388Z,7.70
2018-06-15T10:14:17.848Z,7.30
2018-06-15T10:16:46.315Z,8.27
2018-06-15T10:19:14.618Z,8.20
2018-06-15T10:21:42.844Z,9.67
2018-06-15T10:24:11.055Z,8.40
2018-06-15T10:26:39.474Z,8.80
2018-06-15T10:29:07.774Z,8.00
2018-06-15T10:31:35.999Z,7.57
2018-06-15T10:34:04.286Z,6.63
2018-06-15T10:36:32.385Z,5.90
2018-06-15T10:39:00.762Z,5.63
2018-06-15T10:41:29.061Z,5.80
2018-06-15T10:43:57.329Z,6.30
2018-06-15T10:46:26.350Z,5.30
2018-06-15T10:48:54.714Z,5.87
2018-06-15T10:51:23.402Z,4.90
2018-06-15T10:53:51.662Z,4.63
2018-06-15T10:56:20.013Z,7.60
2018-06-15T10:58:48.319Z,6.10
2018-06-15T11:01:17.217Z,5.03
2018-06-15T11:03:45.566Z,8.50
2018-06-15T11:06:13.898Z,3.83
2018-06-15T11:08:42.198Z,3.90
2018-06-15T11:11:10.590Z,3.47
2018-06-15T11:13:39.163Z,3.70
2018-06-15T11:16:07.367Z,4.20
2018-06-15T11:18:35.574Z,3.67
2018-06-15T11:21:03.874Z,3.80
2018-06-15T11:23:32.154Z,3.67
2018-06-15T11:26:00.729Z,3.43
2018-06-15T11:28:29.091Z,5.50
2018-06-15T11:30:57.125Z,5.10
2018-06-15T11:33:25.691Z,5.13
2018-06-15T11:35:53.773Z,4.57
2018-06-15T11:38:21.846Z,4.28
2018-06-15T11:40:49.891Z,5.90
2018-06-15T11:43:18.175Z,5.57
2018-06-15T11:45:46.483Z,5.73
2018-06-15T11:48:15.930Z,5.80
2018-06-15T11:50:43.941Z,5.80
2018-06-15T11:53:12.315Z,5.03
2018-06-15T11:55:40.305Z,5.07
2018-06-15T11:58:08.551Z,5.37
2018-06-15T12:00:36.811Z,4.40
2018-06-15T12:03:05.163Z,4.80
2018-06-15T12:05:34.354Z,5.23
2018-06-15T12:08:02.791Z,4.97
2018-06-15T12:10:31.002Z,5.43
2018-06-15T12:12:59.364Z,4.60
2018-06-15T12:15:27.685Z,4.87
2018-06-15T12:17:55.923Z,4.50
2018-06-15T12:20:23.988Z,5.17
2018-06-15T12:22:52.135Z,3.90
2018-06-15T12:25:20.687Z,5.17
2018-06-15T12:27:48.999Z,5.17
2018-06-15T12:30:17.366Z,3.90
2018-06-15T12:32:45.433Z,5.40
2018-06-15T12:35:13.622Z,5.77
2018-06-15T12:37:41.874Z,5.60
2018-06-15T12:40:10.219Z,7.60
2018-06-15T12:42:38.464Z,6.20
2018-06-15T12:45:06.862Z,25.03
2018-06-15T12:47:35.328Z,5.50
2018-06-15T12:50:03.586Z,4.80
2018-06-15T12:52:31.724Z,5.17
2018-06-15T12:55:00.044Z,5.57
2018-06-15T12:57:28.059Z,4.80
2018-06-15T12:59:56.397Z,4.93
2018-06-15T13:02:24.691Z,4.63
2018-06-15T13:04:52.968Z,6.07
2018-06-15T13:07:21.317Z,6.70
2018-06-15T13:09:49.570Z,5.47
2018-06-15T13:12:17.901Z,6.57
2018-06-15T13:14:46.513Z,7.10
2018-06-15T13:17:14.854Z,8.67
2018-06-15T13:19:43.134Z,8.80
2018-06-15T13:22:12.096Z,18.07
2018-06-15T13:24:40.810Z,8.27
2018-06-15T13:27:09.076Z,6.50
2018-06-15T13:29:37.369Z,7.80
2018-06-15T13:32:05.884Z,6.57
2018-06-15T13:34:34.265Z,7.20
2018-06-15T13:37:02.962Z,6.47
2018-06-15T13:39:31.675Z,21.40
2018-06-15T13:42:00.049Z,10.80
2018-06-15T13:44:29.162Z,14.07
2018-06-15T13:46:57.470Z,9.40
2018-06-15T13:49:25.873Z,6.00
2018-06-15T13:51:54.108Z,5.23
2018-06-15T13:54:23.206Z,4.97
2018-06-15T13:56:51.765Z,7.87
2018-06-15T13:59:20.206Z,7.90
2018-06-15T14:01:48.449Z,5.00
2018-06-15T14:04:18.343Z,5.17
2018-06-15T14:06:46.653Z,4.70
2018-06-15T14:09:14.979Z,4.77
2018-06-15T14:11:43.207Z,4.57
2018-06-15T14:14:11.462Z,5.53
2018-06-15T14:16:39.435Z,5.53
2018-06-15T14:19:07.702Z,5.20
2018-06-15T14:21:35.909Z,5.27
2018-06-15T14:24:04.536Z,5.43
2018-06-15T14:26:33.077Z,7.57
2018-06-15T14:29:02.187Z,6.80
2018-06-15T14:31:30.626Z,6.10
2018-06-15T14:34:03.293Z,7.50
2018-06-15T14:36:31.713Z,4.90
2018-06-15T14:39:00.338Z,5.40
2018-06-15T14:41:30.829Z,4.93
2018-06-15T14:43:59.340Z,5.27
2018-06-15T14:46:27.440Z,4.70
2018-06-15T14:48:55.704Z,4.10
2018-06-15T14:51:23.816Z,6.43
2018-06-15T14:53:52.176Z,7.07
2018-06-15T14:56:20.412Z,5.37
2018-06-15T14:58:48.918Z,5.20
2018-06-15T15:01:18.310Z,5.40
2018-06-15T15:03:46.691Z,6.27
2018-06-15T15:06:14.734Z,4.50
2018-06-15T15:08:43.058Z,5.90
2018-06-15T15:11:11.141Z,6.90
2018-06-15T15:13:39.464Z,8.73
2018-06-15T15:16:07.661Z,5.70
2018-06-15T15:18:35.981Z,8.40
2018-06-15T15:21:04.196Z,14.37
2018-06-15T15:23:32.415Z,32.20
2018-06-15T15:26:00.679Z,16.97
2018-06-15T15:28:28.663Z,9.40
2018-06-15T15:30:56.699Z,6.40
2018-06-15T15:33:25.047Z,6.70
2018-06-15T15:35:53.562Z,5.80
2018-06-15T15:38:21.813Z,5.20
2018-06-15T15:40:49.926Z,5.47
2018-06-15T15:43:18.346Z,5.10
2018-06-15T15:45:46.786Z,5.07
2018-06-15T15:48:14.838Z,4.90
2018-06-15T15:50:43.557Z,5.43
2018-06-15T15:53:11.963Z,4.73
2018-06-15T15:55:40.492Z,5.17
2018-06-15T15:58:08.818Z,8.40
2018-06-15T16:00:37.078Z,5.70
2018-06-15T16:03:05.999Z,5.70
2018-06-15T16:05:34.375Z,6.93
2018-06-15T16:08:02.819Z,6.43
2018-06-15T16:10:31.948Z,8.08
2018-06-15T16:13:00.260Z,4.37
2018-06-15T16:15:29.872Z,5.20
2018-06-15T16:17:58.695Z,5.23
2018-06-15T16:20:27.102Z,5.13
2018-06-15T16:22:55.629Z,9.20
2018-06-15T16:25:23.642Z,15.63
2018-06-15T16:27:51.833Z,6.30
2018-06-15T16:30:20.047Z,7.00
2018-06-15T16:32:48.254Z,6.23
2018-06-15T16:35:16.491Z,4.80
2018-06-15T16:37:44.787Z,5.37
2018-06-15T16:40:13.190Z,15.50
2018-06-15T16:42:41.426Z,8.03
2018-06-15T16:45:09.861Z,6.20
2018-06-15T16:47:38.094Z,7.50
2018-06-15T16:50:06.357Z,8.80
2018-06-15T16:52:34.567Z,8.30
2018-06-15T16:55:02.797Z,9.07
2018-06-15T16:57:30.821Z,10.93
2018-06-15T16:59:59.141Z,6.20
2018-06-15T17:02:27.496Z,7.20
2018-06-15T17:04:56.007Z,7.47
2018-06-15T17:07:24.254Z,5.50
2018-06-15T17:09:52.751Z,5.67
2018-06-15T17:12:21.505Z,6.17
2018-06-15T17:14:49.772Z,11.43
2018-06-15T17:17:18.221Z,6.30
2018-06-15T17:19:46.287Z,5.47
2018-06-15T17:22:15.204Z,5.90
2018-06-15T17:24:43.237Z,6.80
2018-06-15T17:27:11.510Z,5.63
2018-06-15T17:29:39.707Z,5.30
2018-06-15T17:32:09.312Z,4.93
2018-06-15T17:34:37.680Z,7.40
2018-06-15T17:37:11.060Z,9.97
2018-06-15T17:39:39.434Z,7.90
2018-06-15T17:42:08.304Z,6.03
2018-06-15T17:44:36.675Z,6.20
2018-06-15T17:47:05.140Z,5.40
2018-06-15T17:49:34.391Z,5.47
2018-06-15T17:52:02.618Z,5.50
2018-06-15T17:54:30.810Z,5.67
2018-06-15T17:56:59.089Z,7.07
2018-06-15T17:59:27.311Z,7.23
2018-06-15T18:01:55.607Z,6.60
2018-06-15T18:04:23.858Z,5.03
2018-06-15T18:06:52.166Z,5.50
2018-06-15T18:09:20.531Z,11.70
2018-06-15T18:11:48.900Z,6.50
2018-06-15T18:14:17.154Z,7.47
2018-06-15T18:16:45.392Z,9.80
2018-06-15T18:19:13.697Z,7.53
2018-06-15T18:21:42.018Z,9.37
2018-06-15T18:24:10.054Z,6.47
2018-06-15T18:26:38.970Z,8.10
2018-06-15T18:29:07.295Z,7.33
2018-06-15T18:31:35.641Z,5.63
2018-06-15T18:34:03.894Z,6.73
2018-06-15T18:36:33.159Z,30.37
2018-06-15T18:39:01.486Z,18.90
2018-06-15T18:41:29.823Z,13.13
2018-06-15T18:43:58.118Z,6.80
2018-06-15T18:46:26.345Z,6.80
2018-06-15T18:48:54.692Z,10.00
2018-06-15T18:51:22.990Z,7.10
2018-06-15T18:53:51.439Z,7.37
2018-06-15T18:56:19.471Z,7.10
2018-06-15T18:58:47.806Z,7.53
2018-06-15T19:01:16.335Z,7.90
2018-06-15T19:03:44.620Z,6.30
2018-06-15T19:06:12.903Z,7.40
2018-06-15T19:08:41.994Z,7.13
2018-06-15T19:11:10.888Z,8.60
2018-06-15T19:13:39.387Z,19.30
2018-06-15T19:16:07.616Z,16.07
2018-06-15T19:18:36.747Z,9.48
2018-06-15T19:21:04.998Z,10.83
2018-06-15T19:23:35.341Z,8.60
2018-06-15T19:26:03.891Z,8.73
2018-06-15T19:28:32.627Z,8.90
2018-06-15T19:31:04.322Z,8.50
2018-06-15T19:33:33.405Z,9.20
2018-06-15T19:36:02.859Z,7.17
2018-06-15T19:38:32.030Z,8.27
2018-06-15T19:41:00.306Z,8.80
2018-06-15T19:43:28.698Z,6.13
2018-06-15T19:45:56.712Z,6.47
2018-06-15T19:48:26.372Z,7.70
2018-06-15T19:50:54.690Z,5.97
2018-06-15T19:53:23.005Z,7.20
2018-06-15T19:55:53.063Z,7.50
2018-06-15T19:58:26.306Z,9.60
2018-06-15T20:00:55.315Z,7.33
2018-06-15T20:03:23.679Z,7.80
2018-06-15T20:05:51.981Z,5.80
2018-06-15T20:08:20.517Z,6.80
2018-06-15T20:10:49.572Z,6.33
2018-06-15T20:13:18.543Z,11.35
2018-06-15T20:15:46.801Z,7.23
2018-06-15T20:18:17.334Z,8.20
2018-06-15T20:20:47.452Z,8.15
2018-06-15T20:23:17.076Z,7.40
2018-06-15T20:25:45.394Z,7.13
2018-06-15T20:28:13.595Z,6.83
2018-06-15T20:30:42.038Z,13.90
2018-06-15T20:33:10.559Z,8.93
2018-06-15T20:35:39.263Z,6.33
2018-06-15T20:38:07.645Z,6.53
2018-06-15T20:40:40.057Z,6.53
2018-06-15T20:43:08.644Z,7.33
2018-06-15T20:45:36.839Z,7.67
2018-06-15T20:48:06.136Z,7.43
2018-06-15T20:50:34.238Z,8.57
2018-06-15T20:53:02.593Z,8.50
2018-06-15T20:55:32.123Z,8.60
2018-06-15T20:58:03.647Z,7.90
2018-06-15T21:00:33.579Z,8.00
2018-06-15T21:03:02.030Z,7.97
2018-06-15T21:05:30.674Z,8.03
2018-06-15T21:07:59.521Z,14.63
2018-06-15T21:10:28.405Z,9.93
2018-06-15T21:12:56.601Z,9.00
2018-06-15T21:15:25.078Z,8.73
2018-06-15T21:17:54.282Z,8.37
2018-06-15T21:20:24.102Z,8.10
2018-06-15T21:22:52.669Z,9.97
2018-06-15T21:25:20.729Z,9.27
2018-06-15T21:27:49.013Z,9.70
2018-06-15T21:30:17.526Z,11.00
2018-06-15T21:32:47.113Z,10.13
2018-06-15T21:35:15.400Z,12.83
2018-06-15T21:37:43.606Z,11.80
2018-06-15T21:40:12.460Z,13.53
2018-06-15T21:42:40.947Z,13.90
2018-06-15T21:45:10.331Z,13.87
2018-06-15T21:47:39.252Z,12.90
2018-06-15T21:50:07.742Z,18.20
2018-06-15T21:52:35.888Z,14.10
2018-06-15T21:55:04.314Z,13.77
2018-06-15T21:57:33.944Z,13.20
2018-06-15T22:00:02.222Z,18.10
2018-06-15T22:02:30.294Z,14.37
2018-06-15T22:04:58.834Z,14.73
2018-06-15T22:07:27.432Z,14.63
2018-06-15T22:10:04.019Z,12.70
2018-06-15T22:12:32.469Z,13.27
2018-06-15T22:15:00.863Z,12.50
2018-06-15T22:17:29.491Z,12.10
2018-06-15T22:19:58.261Z,12.47
2018-06-15T22:22:26.619Z,12.27
2018-06-15T22:24:54.960Z,12.27
2018-06-15T22:27:24.265Z,13.17
2018-06-15T22:29:52.549Z,12.03
2018-06-15T22:32:21.000Z,13.13
2018-06-15T22:34:49.394Z,11.30
2018-06-15T22:37:18.826Z,12.20
2018-06-15T22:39:47.110Z,10.63
2018-06-15T22:42:15.382Z,10.67
2018-06-15T22:44:43.681Z,11.20
2018-06-15T22:47:12.461Z,11.13
2018-06-15T22:49:40.778Z,14.87
2018-06-15T22:52:09.042Z,13.03
2018-06-15T22:54:37.494Z,13.20
2018-06-15T22:57:05.858Z,13.23
2018-06-15T22:59:34.824Z,14.00
2018-06-15T23:02:03.253Z,11.90
2018-06-15T23:04:31.514Z,14.30
2018-06-15T23:06:59.866Z,13.77
2018-06-15T23:09:28.187Z,12.27
2018-06-15T23:11:56.542Z,10.00
2018-06-15T23:14:24.621Z,11.40
2018-06-15T23:16:52.894Z,10.00
2018-06-15T23:19:21.223Z,11.00
2018-06-15T23:21:49.514Z,11.07
2018-06-15T23:24:17.615Z,11.47
2018-06-15T23:26:45.990Z,12.63
2018-06-15T23:29:14.340Z,11.80
2018-06-15T23:31:42.449Z,11.03
2018-06-15T23:34:10.530Z,11.40
2018-06-15T23:36:38.803Z,11.60
2018-06-15T23:39:08.194Z,12.27
2018-06-15T23:41:36.574Z,11.70
2018-06-15T23:44:04.802Z,13.20
2018-06-15T23:46:33.102Z,11.60
2018-06-15T23:49:01.398Z,11.13
2018-06-15T23:51:29.678Z,11.80
2018-06-15T23:53:57.947Z,12.10
2018-06-15T23:56:26.238Z,12.03
2018-06-15T23:58:54.528Z,11.90
